sensor_id;sensor_type;location;lat;lon;timestamp;P1;durP1;ratioP1;P2;durP2;ratioP2
64903;SDS011;51401;48.882;12.598;2023-08-01T00:00:29;6.18;;;3.45;;
64903;SDS011;51401;48.882;12.598;2023-08-01T00:02:54;7.50;;;3.90;;
64903;SDS011;51401;48.882;12.598;2023-08-01T00:05:20;6.68;;;3.95;;
64903;SDS011;51401;48.882;12.598;2023-08-01T00:07:45;5.27;;;3.63;;
64903;SDS011;51401;48.882;12.598;2023-08-01T00:10:10;4.13;;;3.15;;
64903;SDS011;51401;48.882;12.598;2023-08-01T00:12:35;4.25;;;3.33;;
64903;SDS011;51401;48.882;12.598;2023-08-01T00:15:01;5.93;;;4.10;;
64903;SDS011;51401;48.882;12.598;2023-08-01T00:17:27;5.18;;;3.83;;
64903;SDS011;51401;48.882;12.598;2023-08-01T00:19:52;6.75;;;4.60;;
64903;SDS011;51401;48.882;12.598;2023-08-01T00:22:17;5.15;;;3.95;;
64903;SDS011;51401;48.882;12.598;2023-08-01T00:24:43;5.78;;;3.78;;
64903;SDS011;51401;48.882;12.598;2023-08-01T00:27:08;5.35;;;3.75;;
64903;SDS011;51401;48.882;12.598;2023-08-01T00:29:35;6.20;;;4.10;;
64903;SDS011;51401;48.882;12.598;2023-08-01T00:32:01;5.57;;;3.78;;
64903;SDS011;51401;48.882;12.598;2023-08-01T00:34:26;5.65;;;4.15;;
64903;SDS011;51401;48.882;12.598;2023-08-01T00:36:51;5.43;;;3.70;;
64903;SDS011;51401;48.882;12.598;2023-08-01T00:39:16;5.13;;;3.73;;
64903;SDS011;51401;48.882;12.598;2023-08-01T00:41:42;6.03;;;3.50;;
64903;SDS011;51401;48.882;12.598;2023-08-01T00:44:07;4.93;;;3.85;;
64903;SDS011;51401;48.882;12.598;2023-08-01T00:46:32;5.05;;;3.88;;
64903;SDS011;51401;48.882;12.598;2023-08-01T00:48:58;6.72;;;3.83;;
64903;SDS011;51401;48.882;12.598;2023-08-01T00:51:25;7.72;;;4.55;;
64903;SDS011;51401;48.882;12.598;2023-08-01T00:53:51;4.75;;;3.92;;
64903;SDS011;51401;48.882;12.598;2023-08-01T00:56:17;5.20;;;4.15;;
64903;SDS011;51401;48.882;12.598;2023-08-01T00:58:43;5.53;;;3.90;;
64903;SDS011;51401;48.882;12.598;2023-08-01T01:01:08;7.13;;;4.43;;
64903;SDS011;51401;48.882;12.598;2023-08-01T01:03:33;6.33;;;4.23;;
64903;SDS011;51401;48.882;12.598;2023-08-01T01:08:42;5.03;;;4.18;;
64903;SDS011;51401;48.882;12.598;2023-08-01T01:11:08;5.32;;;4.13;;
64903;SDS011;51401;48.882;12.598;2023-08-01T01:13:33;7.20;;;3.93;;
64903;SDS011;51401;48.882;12.598;2023-08-01T01:15:59;7.13;;;4.53;;
64903;SDS011;51401;48.882;12.598;2023-08-01T01:18:24;6.03;;;4.43;;
64903;SDS011;51401;48.882;12.598;2023-08-01T01:20:50;6.47;;;4.15;;
64903;SDS011;51401;48.882;12.598;2023-08-01T01:23:15;6.50;;;4.22;;
64903;SDS011;51401;48.882;12.598;2023-08-01T01:25:41;6.40;;;3.70;;
64903;SDS011;51401;48.882;12.598;2023-08-01T01:28:07;6.28;;;3.95;;
64903;SDS011;51401;48.882;12.598;2023-08-01T01:30:33;6.75;;;3.92;;
64903;SDS011;51401;48.882;12.598;2023-08-01T01:33:00;8.60;;;4.82;;
64903;SDS011;51401;48.882;12.598;2023-08-01T01:35:26;4.80;;;3.85;;
64903;SDS011;51401;48.882;12.598;2023-08-01T01:37:51;5.63;;;4.20;;
64903;SDS011;51401;48.882;12.598;2023-08-01T01:40:16;5.97;;;4.80;;
64903;SDS011;51401;48.882;12.598;2023-08-01T01:42:42;7.13;;;5.65;;
64903;SDS011;51401;48.882;12.598;2023-08-01T01:45:07;6.70;;;4.90;;
64903;SDS011;51401;48.882;12.598;2023-08-01T01:47:32;6.32;;;5.10;;
64903;SDS011;51401;48.882;12.598;2023-08-01T01:49:58;6.35;;;5.28;;
64903;SDS011;51401;48.882;12.598;2023-08-01T01:52:23;6.70;;;4.93;;
64903;SDS011;51401;48.882;12.598;2023-08-01T01:54:49;8.55;;;6.50;;
64903;SDS011;51401;48.882;12.598;2023-08-01T01:57:14;7.97;;;4.90;;
64903;SDS011;51401;48.882;12.598;2023-08-01T01:59:39;6.50;;;4.87;;
64903;SDS011;51401;48.882;12.598;2023-08-01T02:02:05;6.60;;;4.57;;
64903;SDS011;51401;48.882;12.598;2023-08-01T02:04:30;5.97;;;4.50;;
64903;SDS011;51401;48.882;12.598;2023-08-01T02:06:56;6.20;;;4.43;;
64903;SDS011;51401;48.882;12.598;2023-08-01T02:09:21;5.47;;;4.32;;
64903;SDS011;51401;48.882;12.598;2023-08-01T02:11:46;5.05;;;4.40;;
64903;SDS011;51401;48.882;12.598;2023-08-01T02:14:12;6.32;;;4.10;;
64903;SDS011;51401;48.882;12.598;2023-08-01T02:16:38;4.30;;;3.90;;
64903;SDS011;51401;48.882;12.598;2023-08-01T02:19:04;6.82;;;4.20;;
64903;SDS011;51401;48.882;12.598;2023-08-01T02:21:29;6.53;;;4.45;;
64903;SDS011;51401;48.882;12.598;2023-08-01T02:23:54;5.23;;;4.30;;
64903;SDS011;51401;48.882;12.598;2023-08-01T02:26:19;5.03;;;4.20;;
64903;SDS011;51401;48.882;12.598;2023-08-01T02:28:47;4.93;;;4.15;;
64903;SDS011;51401;48.882;12.598;2023-08-01T02:31:12;4.55;;;3.95;;
64903;SDS011;51401;48.882;12.598;2023-08-01T02:33:38;6.65;;;4.00;;
64903;SDS011;51401;48.882;12.598;2023-08-01T02:36:03;4.93;;;4.33;;
64903;SDS011;51401;48.882;12.598;2023-08-01T02:38:28;7.70;;;4.55;;
64903;SDS011;51401;48.882;12.598;2023-08-01T02:40:54;5.27;;;4.37;;
64903;SDS011;51401;48.882;12.598;2023-08-01T02:43:19;7.32;;;4.68;;
64903;SDS011;51401;48.882;12.598;2023-08-01T02:45:45;5.07;;;4.30;;
64903;SDS011;51401;48.882;12.598;2023-08-01T02:48:10;5.00;;;4.50;;
64903;SDS011;51401;48.882;12.598;2023-08-01T02:50:36;6.68;;;5.15;;
64903;SDS011;51401;48.882;12.598;2023-08-01T02:53:01;7.27;;;4.90;;
64903;SDS011;51401;48.882;12.598;2023-08-01T02:55:26;5.93;;;4.67;;
64903;SDS011;51401;48.882;12.598;2023-08-01T02:57:52;6.13;;;4.83;;
64903;SDS011;51401;48.882;12.598;2023-08-01T03:00:17;7.50;;;4.60;;
64903;SDS011;51401;48.882;12.598;2023-08-01T03:02:42;5.65;;;4.72;;
64903;SDS011;51401;48.882;12.598;2023-08-01T03:05:08;7.47;;;4.80;;
64903;SDS011;51401;48.882;12.598;2023-08-01T03:07:34;7.45;;;4.88;;
64903;SDS011;51401;48.882;12.598;2023-08-01T03:09:59;5.78;;;4.78;;
64903;SDS011;51401;48.882;12.598;2023-08-01T03:12:24;7.93;;;5.30;;
64903;SDS011;51401;48.882;12.598;2023-08-01T03:14:50;9.10;;;5.70;;
64903;SDS011;51401;48.882;12.598;2023-08-01T03:17:15;7.13;;;4.90;;
64903;SDS011;51401;48.882;12.598;2023-08-01T03:19:41;7.45;;;5.03;;
64903;SDS011;51401;48.882;12.598;2023-08-01T03:22:06;6.63;;;5.22;;
64903;SDS011;51401;48.882;12.598;2023-08-01T03:24:32;7.57;;;5.28;;
64903;SDS011;51401;48.882;12.598;2023-08-01T03:26:58;6.70;;;5.05;;
64903;SDS011;51401;48.882;12.598;2023-08-01T03:29:23;6.43;;;4.97;;
64903;SDS011;51401;48.882;12.598;2023-08-01T03:31:48;6.20;;;5.07;;
64903;SDS011;51401;48.882;12.598;2023-08-01T03:34:13;5.47;;;4.97;;
64903;SDS011;51401;48.882;12.598;2023-08-01T03:36:39;5.87;;;4.97;;
64903;SDS011;51401;48.882;12.598;2023-08-01T03:39:04;7.18;;;4.25;;
64903;SDS011;51401;48.882;12.598;2023-08-01T03:41:29;7.07;;;4.35;;
64903;SDS011;51401;48.882;12.598;2023-08-01T03:43:55;6.13;;;4.80;;
64903;SDS011;51401;48.882;12.598;2023-08-01T03:46:20;4.75;;;4.22;;
64903;SDS011;51401;48.882;12.598;2023-08-01T03:48:45;5.23;;;4.67;;
64903;SDS011;51401;48.882;12.598;2023-08-01T03:51:10;6.70;;;4.40;;
64903;SDS011;51401;48.882;12.598;2023-08-01T03:53:36;4.78;;;4.10;;
64903;SDS011;51401;48.882;12.598;2023-08-01T03:56:01;6.93;;;4.60;;
64903;SDS011;51401;48.882;12.598;2023-08-01T03:58:27;5.32;;;4.53;;
64903;SDS011;51401;48.882;12.598;2023-08-01T04:00:52;6.75;;;4.13;;
64903;SDS011;51401;48.882;12.598;2023-08-01T04:03:18;6.07;;;4.57;;
64903;SDS011;51401;48.882;12.598;2023-08-01T04:05:43;5.90;;;4.60;;
64903;SDS011;51401;48.882;12.598;2023-08-01T04:08:09;5.43;;;4.43;;
64903;SDS011;51401;48.882;12.598;2023-08-01T04:10:34;4.90;;;4.40;;
64903;SDS011;51401;48.882;12.598;2023-08-01T04:12:59;6.20;;;4.00;;
64903;SDS011;51401;48.882;12.598;2023-08-01T04:15:24;5.10;;;4.10;;
64903;SDS011;51401;48.882;12.598;2023-08-01T04:17:50;6.85;;;4.50;;
64903;SDS011;51401;48.882;12.598;2023-08-01T04:20:15;4.63;;;4.20;;
64903;SDS011;51401;48.882;12.598;2023-08-01T04:22:40;4.68;;;3.72;;
64903;SDS011;51401;48.882;12.598;2023-08-01T04:25:06;7.10;;;5.57;;
64903;SDS011;51401;48.882;12.598;2023-08-01T04:27:32;6.55;;;4.53;;
64903;SDS011;51401;48.882;12.598;2023-08-01T04:29:57;6.23;;;4.23;;
64903;SDS011;51401;48.882;12.598;2023-08-01T04:32:22;6.13;;;4.53;;
64903;SDS011;51401;48.882;12.598;2023-08-01T04:34:47;8.20;;;4.60;;
64903;SDS011;51401;48.882;12.598;2023-08-01T04:37:13;7.73;;;4.40;;
64903;SDS011;51401;48.882;12.598;2023-08-01T04:39:38;5.32;;;4.82;;
64903;SDS011;51401;48.882;12.598;2023-08-01T04:42:04;7.55;;;4.90;;
64903;SDS011;51401;48.882;12.598;2023-08-01T04:44:29;4.65;;;3.97;;
64903;SDS011;51401;48.882;12.598;2023-08-01T04:46:55;6.57;;;4.03;;
64903;SDS011;51401;48.882;12.598;2023-08-01T04:49:21;6.63;;;4.55;;
64903;SDS011;51401;48.882;12.598;2023-08-01T04:51:48;6.32;;;4.30;;
64903;SDS011;51401;48.882;12.598;2023-08-01T04:54:13;5.25;;;4.25;;
64903;SDS011;51401;48.882;12.598;2023-08-01T04:56:39;5.43;;;3.90;;
64903;SDS011;51401;48.882;12.598;2023-08-01T04:59:04;7.50;;;4.27;;
64903;SDS011;51401;48.882;12.598;2023-08-01T05:01:30;5.80;;;4.68;;
64903;SDS011;51401;48.882;12.598;2023-08-01T05:03:55;5.87;;;4.27;;
64903;SDS011;51401;48.882;12.598;2023-08-01T05:06:21;5.50;;;3.92;;
64903;SDS011;51401;48.882;12.598;2023-08-01T05:08:46;6.10;;;4.00;;
64903;SDS011;51401;48.882;12.598;2023-08-01T05:11:11;7.40;;;4.50;;
64903;SDS011;51401;48.882;12.598;2023-08-01T05:13:37;6.22;;;4.15;;
64903;SDS011;51401;48.882;12.598;2023-08-01T05:16:02;7.10;;;4.47;;
64903;SDS011;51401;48.882;12.598;2023-08-01T05:18:30;4.90;;;4.03;;
64903;SDS011;51401;48.882;12.598;2023-08-01T05:20:55;5.10;;;4.32;;
64903;SDS011;51401;48.882;12.598;2023-08-01T05:23:21;4.73;;;3.53;;
64903;SDS011;51401;48.882;12.598;2023-08-01T05:25:46;5.00;;;3.60;;
64903;SDS011;51401;48.882;12.598;2023-08-01T05:28:11;6.50;;;4.13;;
64903;SDS011;51401;48.882;12.598;2023-08-01T05:30:37;6.38;;;3.92;;
64903;SDS011;51401;48.882;12.598;2023-08-01T05:33:02;8.10;;;4.57;;
64903;SDS011;51401;48.882;12.598;2023-08-01T05:35:27;4.88;;;4.10;;
64903;SDS011;51401;48.882;12.598;2023-08-01T05:37:53;6.73;;;3.77;;
64903;SDS011;51401;48.882;12.598;2023-08-01T05:40:18;5.85;;;4.07;;
64903;SDS011;51401;48.882;12.598;2023-08-01T05:42:43;6.57;;;3.90;;
64903;SDS011;51401;48.882;12.598;2023-08-01T05:45:09;5.38;;;3.45;;
64903;SDS011;51401;48.882;12.598;2023-08-01T05:47:36;5.78;;;3.65;;
64903;SDS011;51401;48.882;12.598;2023-08-01T05:50:01;5.10;;;3.50;;
64903;SDS011;51401;48.882;12.598;2023-08-01T05:52:27;7.47;;;4.10;;
64903;SDS011;51401;48.882;12.598;2023-08-01T05:54:52;6.27;;;3.73;;
64903;SDS011;51401;48.882;12.598;2023-08-01T05:57:17;6.22;;;3.55;;
64903;SDS011;51401;48.882;12.598;2023-08-01T05:59:43;4.77;;;3.60;;
64903;SDS011;51401;48.882;12.598;2023-08-01T06:02:08;6.27;;;3.60;;
64903;SDS011;51401;48.882;12.598;2023-08-01T06:04:33;4.63;;;3.67;;
64903;SDS011;51401;48.882;12.598;2023-08-01T06:06:58;4.50;;;3.10;;
64903;SDS011;51401;48.882;12.598;2023-08-01T06:09:24;6.40;;;4.00;;
64903;SDS011;51401;48.882;12.598;2023-08-01T06:11:49;4.47;;;2.97;;
64903;SDS011;51401;48.882;12.598;2023-08-01T06:14:15;5.22;;;3.45;;
64903;SDS011;51401;48.882;12.598;2023-08-01T06:16:40;6.40;;;4.00;;
64903;SDS011;51401;48.882;12.598;2023-08-01T06:19:06;5.78;;;3.75;;
64903;SDS011;51401;48.882;12.598;2023-08-01T06:21:31;5.30;;;3.65;;
64903;SDS011;51401;48.882;12.598;2023-08-01T06:23:56;5.97;;;3.80;;
64903;SDS011;51401;48.882;12.598;2023-08-01T06:26:22;5.37;;;3.27;;
64903;SDS011;51401;48.882;12.598;2023-08-01T06:28:47;6.77;;;3.43;;
64903;SDS011;51401;48.882;12.598;2023-08-01T06:31:12;5.50;;;3.87;;
64903;SDS011;51401;48.882;12.598;2023-08-01T06:33:37;5.95;;;3.65;;
64903;SDS011;51401;48.882;12.598;2023-08-01T06:36:03;6.07;;;3.88;;
64903;SDS011;51401;48.882;12.598;2023-08-01T06:38:29;5.35;;;3.67;;
64903;SDS011;51401;48.882;12.598;2023-08-01T06:40:55;5.43;;;3.37;;
64903;SDS011;51401;48.882;12.598;2023-08-01T06:43:20;4.73;;;3.50;;
64903;SDS011;51401;48.882;12.598;2023-08-01T06:45:45;5.33;;;3.23;;
64903;SDS011;51401;48.882;12.598;2023-08-01T06:48:10;5.30;;;3.67;;
64903;SDS011;51401;48.882;12.598;2023-08-01T06:50:36;6.95;;;3.70;;
64903;SDS011;51401;48.882;12.598;2023-08-01T06:53:01;6.10;;;3.87;;
64903;SDS011;51401;48.882;12.598;2023-08-01T06:55:26;6.18;;;3.92;;
64903;SDS011;51401;48.882;12.598;2023-08-01T06:57:52;5.15;;;3.65;;
64903;SDS011;51401;48.882;12.598;2023-08-01T07:00:17;6.35;;;4.05;;
64903;SDS011;51401;48.882;12.598;2023-08-01T07:02:43;6.97;;;4.20;;
64903;SDS011;51401;48.882;12.598;2023-08-01T07:05:08;6.77;;;4.33;;
64903;SDS011;51401;48.882;12.598;2023-08-01T07:07:33;6.30;;;3.70;;
64903;SDS011;51401;48.882;12.598;2023-08-01T07:09:59;5.25;;;3.92;;
64903;SDS011;51401;48.882;12.598;2023-08-01T07:12:24;4.45;;;3.40;;
64903;SDS011;51401;48.882;12.598;2023-08-01T07:14:49;5.90;;;3.70;;
64903;SDS011;51401;48.882;12.598;2023-08-01T07:17:14;6.33;;;3.70;;
64903;SDS011;51401;48.882;12.598;2023-08-01T07:19:40;6.00;;;4.20;;
64903;SDS011;51401;48.882;12.598;2023-08-01T07:22:05;5.32;;;3.80;;
64903;SDS011;51401;48.882;12.598;2023-08-01T07:24:30;5.47;;;3.45;;
64903;SDS011;51401;48.882;12.598;2023-08-01T07:26:55;4.37;;;3.00;;
64903;SDS011;51401;48.882;12.598;2023-08-01T07:29:21;5.85;;;3.53;;
64903;SDS011;51401;48.882;12.598;2023-08-01T07:31:46;5.37;;;3.60;;
64903;SDS011;51401;48.882;12.598;2023-08-01T07:34:11;6.30;;;4.30;;
64903;SDS011;51401;48.882;12.598;2023-08-01T07:36:37;5.47;;;4.00;;
64903;SDS011;51401;48.882;12.598;2023-08-01T07:39:02;5.43;;;3.40;;
64903;SDS011;51401;48.882;12.598;2023-08-01T07:41:28;6.05;;;3.70;;
64903;SDS011;51401;48.882;12.598;2023-08-01T07:43:53;8.07;;;4.28;;
64903;SDS011;51401;48.882;12.598;2023-08-01T07:46:18;5.83;;;3.63;;
64903;SDS011;51401;48.882;12.598;2023-08-01T07:48:44;5.47;;;3.70;;
64903;SDS011;51401;48.882;12.598;2023-08-01T07:51:09;5.85;;;4.05;;
64903;SDS011;51401;48.882;12.598;2023-08-01T07:53:36;5.45;;;3.85;;
64903;SDS011;51401;48.882;12.598;2023-08-01T07:56:01;5.20;;;4.00;;
64903;SDS011;51401;48.882;12.598;2023-08-01T07:58:27;6.20;;;3.80;;
64903;SDS011;51401;48.882;12.598;2023-08-01T08:00:53;5.93;;;4.43;;
64903;SDS011;51401;48.882;12.598;2023-08-01T08:03:19;5.03;;;3.58;;
64903;SDS011;51401;48.882;12.598;2023-08-01T08:05:47;6.32;;;3.90;;
64903;SDS011;51401;48.882;12.598;2023-08-01T08:08:12;6.07;;;4.55;;
64903;SDS011;51401;48.882;12.598;2023-08-01T08:10:38;5.00;;;3.77;;
64903;SDS011;51401;48.882;12.598;2023-08-01T08:13:03;5.30;;;3.83;;
64903;SDS011;51401;48.882;12.598;2023-08-01T08:15:28;5.55;;;3.90;;
64903;SDS011;51401;48.882;12.598;2023-08-01T08:17:58;5.78;;;4.18;;
64903;SDS011;51401;48.882;12.598;2023-08-01T08:20:24;5.53;;;3.85;;
64903;SDS011;51401;48.882;12.598;2023-08-01T08:22:49;8.63;;;4.07;;
64903;SDS011;51401;48.882;12.598;2023-08-01T08:25:15;5.32;;;3.53;;
64903;SDS011;51401;48.882;12.598;2023-08-01T08:27:40;6.68;;;4.70;;
64903;SDS011;51401;48.882;12.598;2023-08-01T08:30:05;6.55;;;4.53;;
64903;SDS011;51401;48.882;12.598;2023-08-01T08:32:31;6.32;;;4.07;;
64903;SDS011;51401;48.882;12.598;2023-08-01T08:34:56;5.40;;;3.90;;
64903;SDS011;51401;48.882;12.598;2023-08-01T08:37:22;5.93;;;3.80;;
64903;SDS011;51401;48.882;12.598;2023-08-01T08:39:47;6.13;;;3.95;;
64903;SDS011;51401;48.882;12.598;2023-08-01T08:42:12;5.00;;;3.63;;
64903;SDS011;51401;48.882;12.598;2023-08-01T08:44:42;6.18;;;3.92;;
64903;SDS011;51401;48.882;12.598;2023-08-01T08:47:08;5.90;;;3.83;;
64903;SDS011;51401;48.882;12.598;2023-08-01T08:49:36;6.72;;;3.50;;
64903;SDS011;51401;48.882;12.598;2023-08-01T08:52:02;5.90;;;3.40;;
64903;SDS011;51401;48.882;12.598;2023-08-01T08:54:28;5.25;;;3.75;;
64903;SDS011;51401;48.882;12.598;2023-08-01T08:56:54;6.45;;;3.63;;
64903;SDS011;51401;48.882;12.598;2023-08-01T08:59:20;7.88;;;4.43;;
64903;SDS011;51401;48.882;12.598;2023-08-01T09:01:46;5.68;;;3.92;;
64903;SDS011;51401;48.882;12.598;2023-08-01T09:04:11;5.30;;;4.05;;
64903;SDS011;51401;48.882;12.598;2023-08-01T09:06:40;6.05;;;3.88;;
64903;SDS011;51401;48.882;12.598;2023-08-01T09:09:11;7.82;;;4.20;;
64903;SDS011;51401;48.882;12.598;2023-08-01T09:11:41;7.40;;;4.88;;
64903;SDS011;51401;48.882;12.598;2023-08-01T09:14:10;7.30;;;4.50;;
64903;SDS011;51401;48.882;12.598;2023-08-01T09:16:35;5.10;;;3.80;;
64903;SDS011;51401;48.882;12.598;2023-08-01T09:19:01;4.35;;;3.33;;
64903;SDS011;51401;48.882;12.598;2023-08-01T09:21:27;7.72;;;4.30;;
64903;SDS011;51401;48.882;12.598;2023-08-01T09:23:58;7.72;;;4.10;;
64903;SDS011;51401;48.882;12.598;2023-08-01T09:26:32;7.53;;;4.45;;
64903;SDS011;51401;48.882;12.598;2023-08-01T09:28:57;5.07;;;3.80;;
64903;SDS011;51401;48.882;12.598;2023-08-01T09:31:26;6.70;;;3.85;;
64903;SDS011;51401;48.882;12.598;2023-08-01T09:33:53;5.38;;;3.95;;
64903;SDS011;51401;48.882;12.598;2023-08-01T09:36:22;5.43;;;3.87;;
64903;SDS011;51401;48.882;12.598;2023-08-01T09:38:47;5.95;;;4.03;;
64903;SDS011;51401;48.882;12.598;2023-08-01T09:41:19;4.43;;;3.67;;
64903;SDS011;51401;48.882;12.598;2023-08-01T09:43:48;6.20;;;3.95;;
64903;SDS011;51401;48.882;12.598;2023-08-01T09:46:15;5.88;;;4.07;;
64903;SDS011;51401;48.882;12.598;2023-08-01T09:48:40;5.28;;;3.92;;
64903;SDS011;51401;48.882;12.598;2023-08-01T09:51:07;5.35;;;4.03;;
64903;SDS011;51401;48.882;12.598;2023-08-01T09:53:46;9.48;;;4.25;;
64903;SDS011;51401;48.882;12.598;2023-08-01T09:56:15;6.80;;;4.28;;
64903;SDS011;51401;48.882;12.598;2023-08-01T09:58:42;4.97;;;4.00;;
64903;SDS011;51401;48.882;12.598;2023-08-01T10:01:09;5.88;;;3.97;;
64903;SDS011;51401;48.882;12.598;2023-08-01T10:03:36;6.18;;;4.53;;
64903;SDS011;51401;48.882;12.598;2023-08-01T10:06:01;4.50;;;3.75;;
64903;SDS011;51401;48.882;12.598;2023-08-01T10:08:28;5.68;;;4.03;;
64903;SDS011;51401;48.882;12.598;2023-08-01T10:10:54;6.20;;;4.15;;
64903;SDS011;51401;48.882;12.598;2023-08-01T10:13:22;6.85;;;4.18;;
64903;SDS011;51401;48.882;12.598;2023-08-01T10:15:49;7.38;;;4.20;;
64903;SDS011;51401;48.882;12.598;2023-08-01T10:18:15;6.22;;;3.80;;
64903;SDS011;51401;48.882;12.598;2023-08-01T10:20:41;4.63;;;3.50;;
64903;SDS011;51401;48.882;12.598;2023-08-01T10:23:08;5.70;;;3.78;;
64903;SDS011;51401;48.882;12.598;2023-08-01T10:25:34;6.70;;;3.78;;
64903;SDS011;51401;48.882;12.598;2023-08-01T10:30:28;6.65;;;4.00;;
64903;SDS011;51401;48.882;12.598;2023-08-01T10:32:55;6.22;;;3.83;;
64903;SDS011;51401;48.882;12.598;2023-08-01T10:38:03;5.93;;;3.70;;
64903;SDS011;51401;48.882;12.598;2023-08-01T10:40:33;5.97;;;3.50;;
64903;SDS011;51401;48.882;12.598;2023-08-01T10:43:17;4.30;;;3.40;;
64903;SDS011;51401;48.882;12.598;2023-08-01T10:45:45;6.15;;;3.58;;
64903;SDS011;51401;48.882;12.598;2023-08-01T10:48:10;6.00;;;3.83;;
64903;SDS011;51401;48.882;12.598;2023-08-01T10:50:36;6.07;;;3.72;;
64903;SDS011;51401;48.882;12.598;2023-08-01T10:53:03;6.15;;;4.10;;
64903;SDS011;51401;48.882;12.598;2023-08-01T10:55:38;5.20;;;3.22;;
64903;SDS011;51401;48.882;12.598;2023-08-01T10:58:04;5.72;;;3.47;;
64903;SDS011;51401;48.882;12.598;2023-08-01T11:00:29;4.40;;;3.30;;
64903;SDS011;51401;48.882;12.598;2023-08-01T11:02:55;7.17;;;3.93;;
64903;SDS011;51401;48.882;12.598;2023-08-01T11:05:20;4.57;;;3.05;;
64903;SDS011;51401;48.882;12.598;2023-08-01T11:07:58;5.65;;;3.08;;
64903;SDS011;51401;48.882;12.598;2023-08-01T11:10:25;4.38;;;3.00;;
64903;SDS011;51401;48.882;12.598;2023-08-01T11:12:52;6.35;;;3.40;;
64903;SDS011;51401;48.882;12.598;2023-08-01T11:15:18;4.35;;;3.45;;
64903;SDS011;51401;48.882;12.598;2023-08-01T11:17:47;5.10;;;3.00;;
64903;SDS011;51401;48.882;12.598;2023-08-01T11:20:14;5.93;;;3.35;;
64903;SDS011;51401;48.882;12.598;2023-08-01T11:25:38;4.72;;;3.13;;
64903;SDS011;51401;48.882;12.598;2023-08-01T11:28:06;5.03;;;3.17;;
64903;SDS011;51401;48.882;12.598;2023-08-01T11:30:34;4.90;;;3.13;;
64903;SDS011;51401;48.882;12.598;2023-08-01T11:33:00;5.68;;;3.28;;
64903;SDS011;51401;48.882;12.598;2023-08-01T11:35:27;4.82;;;3.13;;
64903;SDS011;51401;48.882;12.598;2023-08-01T11:37:53;6.40;;;3.95;;
64903;SDS011;51401;48.882;12.598;2023-08-01T11:40:18;4.75;;;3.40;;
64903;SDS011;51401;48.882;12.598;2023-08-01T11:42:48;6.38;;;3.67;;
64903;SDS011;51401;48.882;12.598;2023-08-01T11:45:16;4.78;;;3.60;;
64903;SDS011;51401;48.882;12.598;2023-08-01T11:47:45;5.10;;;3.65;;
64903;SDS011;51401;48.882;12.598;2023-08-01T11:50:11;4.22;;;3.03;;
64903;SDS011;51401;48.882;12.598;2023-08-01T11:52:36;5.22;;;3.55;;
64903;SDS011;51401;48.882;12.598;2023-08-01T11:55:02;5.28;;;2.95;;
64903;SDS011;51401;48.882;12.598;2023-08-01T11:57:27;4.80;;;2.88;;
64903;SDS011;51401;48.882;12.598;2023-08-01T11:59:54;4.60;;;3.47;;
64903;SDS011;51401;48.882;12.598;2023-08-01T12:02:21;4.28;;;3.13;;
64903;SDS011;51401;48.882;12.598;2023-08-01T12:04:47;5.95;;;3.50;;
64903;SDS011;51401;48.882;12.598;2023-08-01T12:07:13;4.88;;;3.38;;
64903;SDS011;51401;48.882;12.598;2023-08-01T12:09:40;4.60;;;3.08;;
64903;SDS011;51401;48.882;12.598;2023-08-01T12:12:05;6.18;;;3.58;;
64903;SDS011;51401;48.882;12.598;2023-08-01T12:14:31;5.18;;;3.15;;
64903;SDS011;51401;48.882;12.598;2023-08-01T12:16:56;4.90;;;3.30;;
64903;SDS011;51401;48.882;12.598;2023-08-01T12:19:22;4.70;;;3.28;;
64903;SDS011;51401;48.882;12.598;2023-08-01T12:21:48;5.43;;;3.28;;
64903;SDS011;51401;48.882;12.598;2023-08-01T12:24:13;4.90;;;3.10;;
64903;SDS011;51401;48.882;12.598;2023-08-01T12:26:39;4.63;;;3.15;;
64903;SDS011;51401;48.882;12.598;2023-08-01T12:29:04;5.13;;;3.10;;
64903;SDS011;51401;48.882;12.598;2023-08-01T12:31:30;3.75;;;3.28;;
64903;SDS011;51401;48.882;12.598;2023-08-01T12:33:55;4.97;;;3.30;;
64903;SDS011;51401;48.882;12.598;2023-08-01T12:36:21;5.78;;;3.33;;
64903;SDS011;51401;48.882;12.598;2023-08-01T12:38:46;4.00;;;2.78;;
64903;SDS011;51401;48.882;12.598;2023-08-01T12:41:12;5.53;;;2.85;;
64903;SDS011;51401;48.882;12.598;2023-08-01T12:43:37;4.97;;;2.60;;
64903;SDS011;51401;48.882;12.598;2023-08-01T12:46:02;3.97;;;2.40;;
64903;SDS011;51401;48.882;12.598;2023-08-01T12:48:28;3.92;;;2.50;;
64903;SDS011;51401;48.882;12.598;2023-08-01T12:50:54;3.90;;;2.78;;
64903;SDS011;51401;48.882;12.598;2023-08-01T12:53:20;2.75;;;2.35;;
64903;SDS011;51401;48.882;12.598;2023-08-01T12:55:46;3.75;;;2.15;;
64903;SDS011;51401;48.882;12.598;2023-08-01T12:58:12;4.18;;;2.15;;
64903;SDS011;51401;48.882;12.598;2023-08-01T13:00:39;3.00;;;2.28;;
64903;SDS011;51401;48.882;12.598;2023-08-01T13:03:05;3.80;;;2.08;;
64903;SDS011;51401;48.882;12.598;2023-08-01T13:05:35;3.67;;;2.70;;
64903;SDS011;51401;48.882;12.598;2023-08-01T13:08:02;2.97;;;2.20;;
64903;SDS011;51401;48.882;12.598;2023-08-01T13:10:31;2.83;;;2.13;;
64903;SDS011;51401;48.882;12.598;2023-08-01T13:13:06;3.00;;;1.88;;
64903;SDS011;51401;48.882;12.598;2023-08-01T13:15:32;3.72;;;2.30;;
64903;SDS011;51401;48.882;12.598;2023-08-01T13:17:57;2.45;;;1.80;;
64903;SDS011;51401;48.882;12.598;2023-08-01T13:20:22;3.08;;;2.20;;
64903;SDS011;51401;48.882;12.598;2023-08-01T13:22:48;3.28;;;2.10;;
64903;SDS011;51401;48.882;12.598;2023-08-01T13:25:15;3.00;;;1.90;;
64903;SDS011;51401;48.882;12.598;2023-08-01T13:27:41;4.07;;;2.25;;
64903;SDS011;51401;48.882;12.598;2023-08-01T13:30:07;3.05;;;1.80;;
64903;SDS011;51401;48.882;12.598;2023-08-01T13:32:33;3.03;;;1.73;;
64903;SDS011;51401;48.882;12.598;2023-08-01T13:34:58;2.45;;;1.80;;
64903;SDS011;51401;48.882;12.598;2023-08-01T13:37:23;3.00;;;2.00;;
64903;SDS011;51401;48.882;12.598;2023-08-01T13:39:49;4.20;;;2.13;;
64903;SDS011;51401;48.882;12.598;2023-08-01T13:42:14;4.53;;;2.20;;
64903;SDS011;51401;48.882;12.598;2023-08-01T13:44:40;2.42;;;1.67;;
64903;SDS011;51401;48.882;12.598;2023-08-01T13:47:06;2.25;;;1.80;;
64903;SDS011;51401;48.882;12.598;2023-08-01T13:49:31;3.25;;;1.83;;
64903;SDS011;51401;48.882;12.598;2023-08-01T13:51:57;2.67;;;1.70;;
64903;SDS011;51401;48.882;12.598;2023-08-01T13:54:23;3.30;;;2.20;;
64903;SDS011;51401;48.882;12.598;2023-08-01T13:56:48;3.07;;;2.07;;
64903;SDS011;51401;48.882;12.598;2023-08-01T13:59:13;3.33;;;2.28;;
64903;SDS011;51401;48.882;12.598;2023-08-01T14:01:39;3.67;;;1.85;;
64903;SDS011;51401;48.882;12.598;2023-08-01T14:04:04;2.43;;;1.43;;
64903;SDS011;51401;48.882;12.598;2023-08-01T14:06:29;2.88;;;1.90;;
64903;SDS011;51401;48.882;12.598;2023-08-01T14:08:55;2.95;;;1.50;;
64903;SDS011;51401;48.882;12.598;2023-08-01T14:11:20;3.53;;;1.98;;
64903;SDS011;51401;48.882;12.598;2023-08-01T14:13:46;2.70;;;1.85;;
64903;SDS011;51401;48.882;12.598;2023-08-01T14:16:11;3.67;;;1.83;;
64903;SDS011;51401;48.882;12.598;2023-08-01T14:18:36;2.63;;;1.67;;
64903;SDS011;51401;48.882;12.598;2023-08-01T14:21:02;1.98;;;1.40;;
64903;SDS011;51401;48.882;12.598;2023-08-01T14:23:27;2.70;;;2.05;;
64903;SDS011;51401;48.882;12.598;2023-08-01T14:25:53;2.50;;;1.60;;
64903;SDS011;51401;48.882;12.598;2023-08-01T14:28:18;3.88;;;1.70;;
64903;SDS011;51401;48.882;12.598;2023-08-01T14:30:43;1.88;;;1.35;;
64903;SDS011;51401;48.882;12.598;2023-08-01T14:33:09;3.33;;;1.50;;
64903;SDS011;51401;48.882;12.598;2023-08-01T14:35:35;2.15;;;1.45;;